createdAt,value
2019-04-14T00:02:27.289Z,102729.50
2019-04-14T00:04:59.656Z,102729.67
2019-04-14T00:07:30.290Z,102721.02
2019-04-14T00:10:00.756Z,102724.30
2019-04-14T00:12:34.263Z,102718.63
2019-04-14T00:15:19.331Z,102718.29
2019-04-14T00:17:43.536Z,102722.96
2019-04-14T00:20:18.494Z,102727.52
2019-04-14T00:22:53.424Z,102728.57
2019-04-14T00:25:26.461Z,102726.06
2019-04-14T00:27:56.841Z,102722.16
2019-04-14T00:30:27.431Z,102727.69
2019-04-14T00:33:01.805Z,102726.29
2019-04-14T00:35:47.147Z,102726.98
2019-04-14T00:38:27.997Z,102718.96
2019-04-14T00:41:17.983Z,102718.25
2019-04-14T00:44:03.550Z,102714.94
2019-04-14T00:46:40.937Z,102709.85
2019-04-14T00:49:11.496Z,102709.03
2019-04-14T00:51:42.424Z,102702.08
2019-04-14T00:54:13.261Z,102708.66
2019-04-14T00:56:43.698Z,102706.78
2019-04-14T00:59:14.024Z,102702.38
2019-04-14T01:01:44.560Z,102702.38
2019-04-14T01:04:14.963Z,102700.67
2019-04-14T01:06:45.357Z,102699.17
2019-04-14T01:09:17.173Z,102698.05
2019-04-14T01:11:48.765Z,102696.38
2019-04-14T01:14:19.170Z,102704.84
2019-04-14T01:16:49.810Z,102708.56
2019-04-14T01:19:20.191Z,102708.45
2019-04-14T01:21:50.623Z,102703.27
2019-04-14T01:24:21.021Z,102700.78
2019-04-14T01:26:51.355Z,102704.67
2019-04-14T01:29:21.592Z,102713.44
2019-04-14T01:31:52.150Z,102709.03
2019-04-14T01:34:23.717Z,102707.26
2019-04-14T01:36:54.273Z,102708.69
2019-04-14T01:39:24.953Z,102709.74
2019-04-14T01:41:56.449Z,102710.79
2019-04-14T01:44:27.061Z,102715.51
2019-04-14T01:46:58.818Z,102707.09
2019-04-14T01:49:29.167Z,102715.97
2019-04-14T01:52:25.233Z,102711.81
2019-04-14T01:55:20.700Z,102724.70
2019-04-14T01:58:10.203Z,102724.31
2019-04-14T02:01:09.146Z,102723.13
2019-04-14T02:03:40.899Z,102717.84
2019-04-14T02:06:11.516Z,102728.02
2019-04-14T02:08:43.552Z,102725.83
2019-04-14T02:11:14.019Z,102731.30
2019-04-14T02:13:44.455Z,102731.48
2019-04-14T02:16:23.997Z,102732.88
2019-04-14T02:18:47.426Z,102733.47
2019-04-14T02:21:19.433Z,102730.58
2019-04-14T02:23:49.915Z,102716.63
2019-04-14T02:26:20.229Z,102732.75
2019-04-14T02:28:50.779Z,102729.27
2019-04-14T02:31:35.719Z,102730.08
2019-04-14T02:34:31.996Z,102730.86
2019-04-14T02:36:58.737Z,102725.89
2019-04-14T02:39:42.065Z,102727.08
2019-04-14T02:42:17.937Z,102729.77
2019-04-14T02:44:33.922Z,102730.53
2019-04-14T02:47:11.666Z,102734.70
2019-04-14T02:49:36.356Z,102733.52
2019-04-14T02:52:04.775Z,102728.63
2019-04-14T02:54:45.161Z,102741.77
2019-04-14T02:57:10.071Z,102746.62
2019-04-14T02:59:45.334Z,102745.10
2019-04-14T03:02:22.994Z,102744.09
2019-04-14T03:04:47.232Z,102751.38
2019-04-14T03:07:21.962Z,102752.84
2019-04-14T03:09:50.229Z,102752.35
2019-04-14T03:12:29.102Z,102752.23
2019-04-14T03:14:55.580Z,102753.44
2019-04-14T03:17:36.875Z,102752.03
2019-04-14T03:20:30.393Z,102747.64
2019-04-14T03:23:13.860Z,102758.67
2019-04-14T03:25:41.410Z,102758.67
2019-04-14T03:28:31.810Z,102759.36
2019-04-14T03:31:39.623Z,102760.16
2019-04-14T03:37:04.752Z,102764.90
2019-04-14T03:39:00.849Z,102761.02
2019-04-14T03:43:48.456Z,102765.70
2019-04-14T03:49:07.462Z,102760.73
2019-04-14T03:51:48.590Z,102766.42
2019-04-14T03:53:58.442Z,102773.03
2019-04-14T03:56:51.427Z,102770.06
2019-04-14T03:59:22.072Z,102774.09
2019-04-14T04:01:52.610Z,102768.94
2019-04-14T04:04:22.948Z,102761.69
2019-04-14T04:06:53.241Z,102770.04
2019-04-14T04:09:30.049Z,102768.45
2019-04-14T04:12:00.581Z,102771.63
2019-04-14T04:14:31.323Z,102777.58
2019-04-14T04:17:25.562Z,102774.56
2019-04-14T04:20:09.580Z,102774.06
2019-04-14T04:23:03.529Z,102775.73
2019-04-14T04:25:51.487Z,102781.64
2019-04-14T04:28:29.942Z,102782.50
2019-04-14T04:31:06.742Z,102779.11
2019-04-14T04:33:43.982Z,102784.08
2019-04-14T04:36:24.824Z,102785.94
2019-04-14T04:39:19.747Z,102785.70
2019-04-14T04:41:53.786Z,102790.46
2019-04-14T04:44:24.781Z,102791.14
2019-04-14T04:46:55.312Z,102792.60
2019-04-14T04:49:27.674Z,102791.19
2019-04-14T04:51:57.551Z,102797.93
2019-04-14T04:54:27.979Z,102792.44
2019-04-14T04:57:00.125Z,102793.73
2019-04-14T04:59:30.286Z,102791.15
2019-04-14T05:02:00.499Z,102788.56
2019-04-14T05:04:30.845Z,102790.66
2019-04-14T05:07:03.602Z,102791.55
2019-04-14T05:09:51.537Z,102792.08
2019-04-14T05:12:39.102Z,102792.97
2019-04-14T05:15:29.095Z,102788.56
2019-04-14T05:18:00.406Z,102794.98
2019-04-14T05:20:31.380Z,102789.53
2019-04-14T05:23:01.737Z,102799.18
2019-04-14T05:25:32.002Z,102801.56
2019-04-14T05:28:02.641Z,102813.52
2019-04-14T05:30:32.991Z,102812.55
2019-04-14T05:33:03.283Z,102812.78
2019-04-14T05:35:33.501Z,102815.86
2019-04-14T05:38:04.058Z,102816.58
2019-04-14T05:40:34.807Z,102822.67
2019-04-14T05:43:05.102Z,102822.70
2019-04-14T05:45:35.608Z,102821.56
2019-04-14T05:48:07.459Z,102829.07
2019-04-14T05:50:37.987Z,102835.77
2019-04-14T05:53:08.661Z,102830.70
2019-04-14T05:55:39.534Z,102841.38
2019-04-14T05:58:10.015Z,102836.75
2019-04-14T06:00:43.729Z,102838.38
2019-04-14T06:03:14.588Z,102835.22
2019-04-14T06:05:45.081Z,102830.14
2019-04-14T06:08:15.407Z,102841.21
2019-04-14T06:10:45.585Z,102840.12
2019-04-14T06:13:15.883Z,102840.34
2019-04-14T06:15:46.173Z,102844.02
2019-04-14T06:18:16.389Z,102844.61
2019-04-14T06:20:46.680Z,102841.02
2019-04-14T06:23:16.871Z,102837.72
2019-04-14T06:25:47.195Z,102836.01
2019-04-14T06:28:17.448Z,102836.22
2019-04-14T06:31:04.326Z,102844.97
2019-04-14T06:33:59.447Z,102840.26
2019-04-14T06:36:51.517Z,102843.94
2019-04-14T06:39:24.800Z,102850.27
2019-04-14T06:41:55.121Z,102839.16
2019-04-14T06:44:25.327Z,102844.61
2019-04-14T06:46:56.556Z,102841.75
2019-04-14T06:49:28.030Z,102844.42
2019-04-14T06:51:58.822Z,102841.17
2019-04-14T06:54:29.129Z,102838.71
2019-04-14T06:56:59.390Z,102838.84
2019-04-14T06:59:29.727Z,102840.52
2019-04-14T07:02:01.878Z,102846.66
2019-04-14T07:04:32.190Z,102847.02
2019-04-14T07:07:02.766Z,102847.76
2019-04-14T07:09:33.427Z,102845.47
2019-04-14T07:12:04.154Z,102841.95
2019-04-14T07:14:34.844Z,102850.83
2019-04-14T07:17:05.320Z,102841.36
2019-04-14T07:19:35.767Z,102846.19
2019-04-14T07:22:07.020Z,102852.63
2019-04-14T07:24:37.381Z,102855.38
2019-04-14T07:27:08.045Z,102857.66
2019-04-14T07:29:44.769Z,102857.00
2019-04-14T07:32:27.764Z,102860.27
2019-04-14T07:35:07.941Z,102858.48
2019-04-14T07:38:03.129Z,102857.78
2019-04-14T07:40:51.272Z,102865.38
2019-04-14T07:43:31.595Z,102857.77
2019-04-14T07:46:07.429Z,102855.50
2019-04-14T07:48:43.840Z,102861.66
2019-04-14T07:51:34.803Z,102861.33
2019-04-14T07:54:21.865Z,102863.61
2019-04-14T07:57:08.767Z,102856.94
2019-04-14T07:59:50.573Z,102864.06
2019-04-14T08:02:49.097Z,102859.23
2019-04-14T08:05:31.159Z,102858.84
2019-04-14T08:08:01.546Z,102857.59
2019-04-14T08:10:31.822Z,102857.63
2019-04-14T08:13:02.112Z,102857.62
2019-04-14T08:15:32.344Z,102854.80
2019-04-14T08:18:02.619Z,102852.53
2019-04-14T08:20:32.855Z,102854.49
2019-04-14T08:23:02.981Z,102859.52
2019-04-14T08:25:33.299Z,102859.86
2019-04-14T08:28:07.081Z,102859.88
2019-04-14T08:30:40.809Z,102855.48
2019-04-14T08:33:11.209Z,102855.07
2019-04-14T08:35:41.494Z,102862.90
2019-04-14T08:38:11.706Z,102867.86
2019-04-14T08:40:41.977Z,102866.83
2019-04-14T08:43:19.310Z,102859.78
2019-04-14T08:46:14.556Z,102855.46
2019-04-14T08:48:51.195Z,102859.40
2019-04-14T08:51:43.759Z,102855.41
2019-04-14T08:54:36.133Z,102853.11
2019-04-14T08:57:35.429Z,102849.84
2019-04-14T09:00:26.753Z,102855.33
2019-04-14T09:03:11.510Z,102853.33
2019-04-14T09:06:07.735Z,102851.04
2019-04-14T09:08:49.378Z,102850.14
2019-04-14T09:11:28.414Z,102855.38
2019-04-14T09:14:01.291Z,102851.25
2019-04-14T09:16:37.579Z,102851.95
2019-04-14T09:19:10.283Z,102850.67
2019-04-14T09:21:42.796Z,102853.23
2019-04-14T09:24:15.400Z,102855.88
2019-04-14T09:26:50.507Z,102849.33
2019-04-14T09:29:20.539Z,102855.39
2019-04-14T09:31:50.847Z,102858.40
2019-04-14T09:34:21.183Z,102863.20
2019-04-14T09:36:51.612Z,102855.20
2019-04-14T09:39:21.992Z,102860.76
2019-04-14T09:41:52.419Z,102857.78
2019-04-14T09:44:22.719Z,102861.28
2019-04-14T09:46:52.902Z,102855.48
2019-04-14T09:49:23.266Z,102852.35
2019-04-14T09:51:53.537Z,102856.98
2019-04-14T09:54:26.713Z,102862.14
2019-04-14T09:56:57.043Z,102849.39
2019-04-14T09:59:27.483Z,102851.72
2019-04-14T10:01:58.112Z,102847.37
2019-04-14T10:04:28.855Z,102849.77
2019-04-14T10:06:59.052Z,102853.16
2019-04-14T10:09:29.445Z,102852.91
2019-04-14T10:11:59.692Z,102859.44
2019-04-14T10:14:42.252Z,102851.11
2019-04-14T10:17:12.801Z,102852.48
2019-04-14T10:19:43.230Z,102849.26
2019-04-14T10:22:13.937Z,102855.59
2019-04-14T10:24:44.080Z,102850.47
2019-04-14T10:27:14.364Z,102854.05
2019-04-14T10:29:44.814Z,102860.37
2019-04-14T10:32:16.829Z,102849.77
2019-04-14T10:34:47.100Z,102857.45
2019-04-14T10:37:17.326Z,102855.89
2019-04-14T10:39:47.623Z,102850.10
2019-04-14T10:42:17.938Z,102862.40
2019-04-14T10:44:48.283Z,102856.05
2019-04-14T10:47:18.594Z,102856.26
2019-04-14T10:49:48.940Z,102856.06
2019-04-14T10:52:19.286Z,102856.79
2019-04-14T10:54:49.658Z,102855.66
2019-04-14T10:57:19.985Z,102855.01
2019-04-14T10:59:50.247Z,102846.94
2019-04-14T11:02:20.519Z,102857.71
2019-04-14T11:04:50.837Z,102847.68
2019-04-14T11:07:25.441Z,102852.96
2019-04-14T11:09:55.619Z,102849.91
2019-04-14T11:12:25.776Z,102846.09
2019-04-14T11:14:56.105Z,102848.70
2019-04-14T11:17:26.205Z,102836.44
2019-04-14T11:19:56.430Z,102844.38
2019-04-14T11:22:29.812Z,102828.85
2019-04-14T11:25:03.129Z,102840.50
2019-04-14T11:27:33.376Z,102851.41
2019-04-14T11:30:03.982Z,102841.07
2019-04-14T11:32:45.660Z,102842.73
2019-04-14T11:35:34.795Z,102842.27
2019-04-14T11:38:23.859Z,102845.33
2019-04-14T11:40:56.676Z,102835.03
2019-04-14T11:43:27.043Z,102833.64
2019-04-14T11:45:57.367Z,102836.16
2019-04-14T11:48:27.670Z,102830.42
2019-04-14T11:50:58.064Z,102837.66
2019-04-14T11:53:28.365Z,102838.73
2019-04-14T11:55:58.591Z,102843.97
2019-04-14T11:58:29.387Z,102840.83
2019-04-14T12:01:27.560Z,102838.36
2019-04-14T12:04:15.436Z,102842.09
2019-04-14T12:07:07.655Z,102840.16
2019-04-14T12:09:43.815Z,102833.22
2019-04-14T12:12:14.125Z,102835.59
2019-04-14T12:14:44.591Z,102833.39
2019-04-14T12:17:15.036Z,102835.53
2019-04-14T12:19:45.464Z,102833.03
2019-04-14T12:22:15.786Z,102841.17
2019-04-14T12:24:46.430Z,102847.20
2019-04-14T12:27:16.620Z,102840.03
2019-04-14T12:29:47.944Z,102842.77
2019-04-14T12:32:22.189Z,102827.27
2019-04-14T12:34:54.346Z,102839.67
2019-04-14T12:37:30.109Z,102843.64
2019-04-14T12:40:03.387Z,102845.89
2019-04-14T12:43:07.794Z,102838.73
2019-04-14T12:45:55.716Z,102834.44
2019-04-14T12:48:43.440Z,102839.88
2019-04-14T12:51:32.676Z,102838.41
2019-04-14T12:54:03.028Z,102840.92
2019-04-14T12:56:33.297Z,102845.19
2019-04-14T12:59:23.256Z,102839.64
2019-04-14T13:02:16.057Z,102840.10
2019-04-14T13:04:46.395Z,102845.05
2019-04-14T13:07:16.748Z,102852.04
2019-04-14T13:09:47.238Z,102850.59
2019-04-14T13:12:17.529Z,102839.65
2019-04-14T13:14:47.891Z,102838.17
2019-04-14T13:17:18.110Z,102828.09
2019-04-14T13:19:48.371Z,102834.83
2019-04-14T13:22:18.674Z,102835.43
2019-04-14T13:24:49.075Z,102836.33
2019-04-14T13:27:19.433Z,102837.41
2019-04-14T13:29:49.818Z,102836.61
2019-04-14T13:32:20.059Z,102832.09
2019-04-14T13:34:50.322Z,102843.02
2019-04-14T13:37:20.708Z,102842.30
2019-04-14T13:39:51.063Z,102832.35
2019-04-14T13:42:21.372Z,102833.44
2019-04-14T13:44:51.980Z,102829.70
2019-04-14T13:47:22.170Z,102828.35
2019-04-14T13:49:52.467Z,102824.48
2019-04-14T13:52:22.906Z,102827.72
2019-04-14T13:54:53.288Z,102833.07
2019-04-14T13:57:23.611Z,102828.52
2019-04-14T13:59:54.044Z,102837.15
2019-04-14T14:02:24.346Z,102830.70
2019-04-14T14:04:54.587Z,102832.98
2019-04-14T14:07:24.888Z,102835.72
2019-04-14T14:09:57.165Z,102828.74
2019-04-14T14:12:32.762Z,102831.80
2019-04-14T14:15:23.920Z,102832.23
2019-04-14T14:18:11.341Z,102833.41
2019-04-14T14:21:09.765Z,102827.44
2019-04-14T14:23:59.226Z,102819.91
2019-04-14T14:26:30.471Z,102815.43
2019-04-14T14:29:03.262Z,102811.88
2019-04-14T14:31:33.970Z,102816.41
2019-04-14T14:34:04.791Z,102818.39
2019-04-14T14:36:35.537Z,102809.55
2019-04-14T14:39:15.275Z,102801.50
2019-04-14T14:41:48.367Z,102805.86
2019-04-14T14:44:25.658Z,102809.01
2019-04-14T14:47:07.914Z,102803.27
2019-04-14T14:50:20.890Z,102802.86
2019-04-14T14:52:51.426Z,102798.95
2019-04-14T14:55:21.987Z,102796.75
2019-04-14T14:57:52.637Z,102803.84
2019-04-14T15:00:30.499Z,102809.54
2019-04-14T15:03:01.285Z,102812.22
2019-04-14T15:05:32.000Z,102801.57
2019-04-14T15:08:08.237Z,102804.98
2019-04-14T15:10:41.704Z,102804.64
2019-04-14T15:13:11.501Z,102811.34
2019-04-14T15:15:42.069Z,102814.89
2019-04-14T15:18:12.852Z,102814.58
2019-04-14T15:20:43.507Z,102815.72
2019-04-14T15:23:24.678Z,102817.78
2019-04-14T15:25:49.673Z,102809.65
2019-04-14T15:28:20.886Z,102810.92
2019-04-14T15:30:51.465Z,102808.94
2019-04-14T15:33:22.079Z,102809.05
2019-04-14T15:35:52.632Z,102799.32
2019-04-14T15:38:23.305Z,102795.09
2019-04-14T15:40:53.879Z,102808.59
2019-04-14T15:43:24.409Z,102808.92
2019-04-14T15:45:55.151Z,102798.95
2019-04-14T15:48:25.843Z,102801.80
2019-04-14T15:50:56.459Z,102806.36
2019-04-14T15:53:37.298Z,102807.65
2019-04-14T15:55:59.486Z,102811.88
2019-04-14T15:58:36.399Z,102813.52
2019-04-14T16:01:41.222Z,102802.98
2019-04-14T16:04:19.431Z,102807.48
2019-04-14T16:07:05.897Z,102808.06
2019-04-14T16:09:54.133Z,102807.52
2019-04-14T16:12:55.587Z,102805.30
2019-04-14T16:15:45.158Z,102808.49
2019-04-14T16:18:40.659Z,102803.73
2019-04-14T16:21:11.359Z,102812.69
2019-04-14T16:23:50.354Z,102816.52
2019-04-14T16:26:36.402Z,102805.87
2019-04-14T16:29:34.526Z,102809.73
2019-04-14T16:32:37.798Z,102816.78
2019-04-14T16:35:12.654Z,102822.73
2019-04-14T16:37:42.881Z,102829.43
2019-04-14T16:40:13.303Z,102825.08
2019-04-14T16:42:43.534Z,102831.33
2019-04-14T16:45:15.020Z,102822.27
2019-04-14T16:47:45.410Z,102831.83
2019-04-14T16:50:15.661Z,102831.58
2019-04-14T16:52:54.165Z,102843.84
2019-04-14T16:55:32.833Z,102842.95
2019-04-14T16:58:18.493Z,102845.34
2019-04-14T17:00:53.117Z,102853.03
2019-04-14T17:03:23.199Z,102852.39
2019-04-14T17:05:53.771Z,102856.18
2019-04-14T17:08:24.006Z,102856.18
2019-04-14T17:10:54.238Z,102860.13
2019-04-14T17:13:26.150Z,102862.22
2019-04-14T17:16:13.953Z,102867.12
2019-04-14T17:18:49.109Z,102868.89
2019-04-14T17:21:38.196Z,102864.31
2019-04-14T17:24:16.694Z,102866.04
2019-04-14T17:26:56.667Z,102870.81
2019-04-14T17:29:44.187Z,102875.13
2019-04-14T17:32:30.355Z,102872.48
2019-04-14T17:35:19.650Z,102870.13
2019-04-14T17:37:56.344Z,102872.56
2019-04-14T17:40:34.305Z,102881.18
2019-04-14T17:43:13.037Z,102888.52
2019-04-14T17:46:07.853Z,102886.38
2019-04-14T17:48:51.001Z,102887.03
2019-04-14T17:51:42.208Z,102887.68
2019-04-14T17:54:31.680Z,102892.39
2019-04-14T17:57:29.606Z,102894.70
2019-04-14T18:00:21.136Z,102896.66
2019-04-14T18:03:06.352Z,102900.67
2019-04-14T18:05:47.170Z,102897.53
2019-04-14T18:08:31.007Z,102899.89
2019-04-14T18:11:23.143Z,102902.53
2019-04-14T18:14:12.815Z,102906.60
2019-04-14T18:16:57.358Z,102908.09
2019-04-14T18:19:39.701Z,102907.27
2019-04-14T18:22:09.857Z,102913.34
2019-04-14T18:24:42.511Z,102909.48
2019-04-14T18:27:12.022Z,102919.48
2019-04-14T18:30:04.333Z,102916.84
2019-04-14T18:32:39.507Z,102912.38
2019-04-14T18:35:41.269Z,102919.71
2019-04-14T18:38:29.057Z,102915.30
2019-04-14T18:41:07.796Z,102920.94
2019-04-14T18:44:02.518Z,102920.38
2019-04-14T18:46:51.499Z,102920.02
2019-04-14T18:49:27.296Z,102921.87
2019-04-14T18:52:09.911Z,102924.61
2019-04-14T18:55:17.155Z,102921.25
2019-04-14T18:58:02.616Z,102922.28
2019-04-14T19:00:57.176Z,102928.41
2019-04-14T19:03:27.681Z,102929.55
2019-04-14T19:05:58.197Z,102929.83
2019-04-14T19:08:28.570Z,102929.83
2019-04-14T19:11:16.288Z,102927.56
2019-04-14T19:13:47.396Z,102930.36
2019-04-14T19:16:22.634Z,102931.28
2019-04-14T19:18:56.286Z,102932.09
2019-04-14T19:21:28.734Z,102941.79
2019-04-14T19:23:59.042Z,102940.73
2019-04-14T19:26:29.317Z,102946.66
2019-04-14T19:28:59.502Z,102942.13
2019-04-14T19:31:29.807Z,102936.67
2019-04-14T19:34:00.092Z,102950.23
2019-04-14T19:36:30.135Z,102949.21
2019-04-14T19:39:00.318Z,102953.10
2019-04-14T19:41:30.481Z,102955.19
2019-04-14T19:44:00.677Z,102959.04
2019-04-14T19:46:30.898Z,102962.01
2019-04-14T19:49:01.061Z,102963.20
2019-04-14T19:51:31.221Z,102974.45
2019-04-14T19:54:01.710Z,102977.45
2019-04-14T19:56:32.419Z,102976.11
2019-04-14T19:59:03.895Z,102978.66
2019-04-14T20:01:34.540Z,102979.89
2019-04-14T20:04:05.147Z,102980.31
2019-04-14T20:06:35.675Z,102978.04
2019-04-14T20:09:08.590Z,102976.20
2019-04-14T20:11:39.032Z,102980.58
2019-04-14T20:14:09.560Z,102987.09
2019-04-14T20:17:06.141Z,102984.40
2019-04-14T20:19:54.534Z,102990.86
2019-04-14T20:22:30.646Z,102990.67
2019-04-14T20:25:33.665Z,102986.98
2019-04-14T20:28:03.279Z,102994.06
2019-04-14T20:30:39.988Z,102997.38
2019-04-14T20:33:10.702Z,103004.88
2019-04-14T20:35:41.244Z,103016.65
2019-04-14T20:38:11.743Z,103011.03
2019-04-14T20:40:42.486Z,103014.95
2019-04-14T20:43:13.324Z,103016.27
2019-04-14T20:45:44.985Z,103007.98
2019-04-14T20:48:17.022Z,103017.61
2019-04-14T20:50:47.877Z,103021.42
2019-04-14T20:53:18.391Z,103018.73
2019-04-14T20:55:57.408Z,103021.64
2019-04-14T20:58:31.793Z,103019.84
2019-04-14T21:01:05.581Z,103028.53
2019-04-14T21:03:52.878Z,103024.95
2019-04-14T21:06:45.158Z,103024.88
2019-04-14T21:09:22.685Z,103023.03
2019-04-14T21:12:11.385Z,103027.22
2019-04-14T21:15:03.813Z,103028.48
2019-04-14T21:17:57.585Z,103029.64
2019-04-14T21:20:46.278Z,103022.13
2019-04-14T21:23:33.755Z,103025.05
2019-04-14T21:26:09.744Z,103028.89
2019-04-14T21:28:50.044Z,103022.78
2019-04-14T21:31:40.225Z,103024.93
2019-04-14T21:34:32.162Z,103027.47
2019-04-14T21:37:12.171Z,103023.05
2019-04-14T21:40:07.208Z,103025.53
2019-04-14T21:42:37.877Z,103030.77
2019-04-14T21:45:08.496Z,103029.45
2019-04-14T21:47:38.722Z,103023.34
2019-04-14T21:50:09.260Z,103021.15
2019-04-14T21:52:42.266Z,103013.57
2019-04-14T21:55:12.801Z,103006.95
2019-04-14T21:57:52.071Z,103007.80
2019-04-14T22:01:40.475Z,103002.91
2019-04-14T22:04:20.972Z,103007.72
2019-04-14T22:06:51.565Z,103003.17
2019-04-14T22:09:33.656Z,103008.91
2019-04-14T22:12:06.302Z,103000.44
2019-04-14T22:14:36.584Z,103011.59
2019-04-14T22:17:07.203Z,103012.52
2019-04-14T22:19:37.551Z,103014.41
2019-04-14T22:22:07.832Z,103015.22
2019-04-14T22:24:38.012Z,103010.41
2019-04-14T22:27:08.274Z,103009.91
2019-04-14T22:29:38.572Z,103014.75
2019-04-14T22:32:08.788Z,103011.22
2019-04-14T22:34:38.991Z,103016.11
2019-04-14T22:37:09.974Z,103008.69
2019-04-14T22:39:40.190Z,103002.06
2019-04-14T22:42:10.736Z,103004.14
2019-04-14T22:44:40.961Z,103008.83
2019-04-14T22:47:11.265Z,103006.55
2019-04-14T22:49:41.439Z,103007.39
2019-04-14T22:52:11.846Z,103004.28
2019-04-14T22:54:42.088Z,103004.70
2019-04-14T22:57:12.383Z,103003.31
2019-04-14T22:59:42.455Z,103007.73
2019-04-14T23:02:20.267Z,103013.38
2019-04-14T23:05:10.683Z,103012.00
2019-04-14T23:07:54.390Z,103006.06
2019-04-14T23:10:39.840Z,103009.39
2019-04-14T23:13:19.471Z,103006.96
2019-04-14T23:16:08.027Z,103005.87
2019-04-14T23:18:56.124Z,103001.87
2019-04-14T23:21:46.014Z,102997.02
2019-04-14T23:24:21.363Z,102994.24
2019-04-14T23:26:53.205Z,102998.29
2019-04-14T23:29:24.033Z,102993.36
2019-04-14T23:31:54.412Z,102997.45
2019-04-14T23:34:24.883Z,102996.02
2019-04-14T23:36:55.318Z,102997.66
2019-04-14T23:39:25.841Z,102991.12
2019-04-14T23:41:56.426Z,102991.63
2019-04-14T23:44:26.914Z,103000.02
2019-04-14T23:46:57.256Z,102995.26
2019-04-14T23:49:27.751Z,103001.53
2019-04-14T23:51:58.185Z,102994.58
2019-04-14T23:54:28.695Z,103000.23
2019-04-14T23:57:05.469Z,102989.61
2019-04-14T23:59:31.221Z,103000.69
